createdAt,value
2018-03-21T00:01:04.666Z,1030.3
2018-03-21T00:06:05.132Z,1030.3
2018-03-21T00:11:07.709Z,1030.2
2018-03-21T00:16:10.507Z,1030.3
2018-03-21T00:21:06.813Z,1030.3
2018-03-21T00:26:05.263Z,1030.5
2018-03-21T00:31:07.872Z,1030.5
2018-03-21T00:36:05.084Z,1030.6
2018-03-21T00:41:06.995Z,1030.6
2018-03-21T00:46:06.551Z,1030.7
2018-03-21T00:51:06.310Z,1030.6
2018-03-21T00:56:06.881Z,1030.6
2018-03-21T01:01:06.315Z,1030.7
2018-03-21T01:06:04.760Z,1030.7
2018-03-21T01:11:04.398Z,1030.7
2018-03-21T01:16:04.642Z,1030.6
2018-03-21T01:21:05.125Z,1030.7
2018-03-21T01:26:04.371Z,1030.6
2018-03-21T01:31:04.665Z,1030.6
2018-03-21T01:36:05.143Z,1030.7
2018-03-21T01:41:04.700Z,1030.6
2018-03-21T01:46:04.959Z,1030.6
2018-03-21T01:51:04.439Z,1030.7
2018-03-21T01:56:04.678Z,1030.7
2018-03-21T04:01:04.318Z,1031.1
2018-03-21T04:06:04.807Z,1031.2
2018-03-21T04:11:04.394Z,1031.1
2018-03-21T04:16:04.684Z,1031.1
2018-03-21T04:21:05.142Z,1031.2
2018-03-21T04:26:04.340Z,1031.2
2018-03-21T04:31:04.660Z,1031.2
2018-03-21T04:36:05.123Z,1031.2
2018-03-21T04:41:04.760Z,1031.2
2018-03-21T04:46:05.026Z,1031.2
2018-03-21T04:51:04.520Z,1031.3
2018-03-21T04:56:04.729Z,1031.2
2018-03-21T05:01:05.015Z,1031.1
2018-03-21T05:06:04.520Z,1031.2
2018-03-21T05:11:05.061Z,1031.2
2018-03-21T05:16:04.341Z,1031.2
2018-03-21T05:21:04.797Z,1031.2
2018-03-21T05:26:04.623Z,1031.2
2018-03-21T05:31:04.898Z,1031.3
2018-03-21T05:36:04.351Z,1031.2
2018-03-21T05:41:04.893Z,1031.1
2018-03-21T05:46:04.218Z,1031.2
2018-03-21T05:51:04.665Z,1031.2
2018-03-21T05:56:04.882Z,1031.3
2018-03-21T06:01:04.225Z,1031.3
2018-03-21T06:06:04.642Z,1031.4
2018-03-21T06:11:04.216Z,1031.2
2018-03-21T06:16:04.524Z,1031.3
2018-03-21T06:21:05.030Z,1031.4
2018-03-21T06:26:04.283Z,1031.5
2018-03-21T06:31:04.530Z,1031.4
2018-03-21T06:36:04.994Z,1031.4
2018-03-21T06:41:04.583Z,1031.6
2018-03-21T06:46:04.847Z,1031.7
2018-03-21T06:51:04.389Z,1031.8
2018-03-21T06:56:04.574Z,1031.8
2018-03-21T07:01:04.870Z,1031.8
2018-03-21T07:06:04.310Z,1031.8
2018-03-21T07:11:04.874Z,1031.9
2018-03-21T07:16:04.183Z,1032
2018-03-21T07:21:04.705Z,1032.1
2018-03-21T07:26:04.926Z,1032.1
2018-03-21T07:31:04.463Z,1032.1
2018-03-21T07:36:04.722Z,1032
2018-03-21T07:41:04.284Z,1032
2018-03-21T07:46:04.533Z,1031.9
2018-03-21T07:51:05.043Z,1032
2018-03-21T07:56:04.209Z,1032
2018-03-21T08:01:04.501Z,1032
2018-03-21T08:06:04.968Z,1032.1
2018-03-21T08:11:04.565Z,1032.1
2018-03-21T08:16:04.819Z,1032.2
2018-03-21T08:21:04.342Z,1032.3
2018-03-21T08:26:04.517Z,1032.4
2018-03-21T08:31:04.854Z,1032.3
2018-03-21T08:36:04.302Z,1032.4
2018-03-21T08:41:04.875Z,1032.5
2018-03-21T08:46:04.173Z,1032.4
2018-03-21T08:51:04.663Z,1032.3
2018-03-21T08:56:04.857Z,1032.4
2018-03-21T09:01:04.217Z,1032.4
2018-03-21T09:06:04.685Z,1032.4
2018-03-21T09:11:04.215Z,1032.4
2018-03-21T09:16:04.489Z,1032.5
2018-03-21T09:21:05.017Z,1032.5
2018-03-21T09:26:04.326Z,1032.5
2018-03-21T09:31:04.490Z,1032.5
2018-03-21T09:36:04.924Z,1032.5
2018-03-21T09:41:04.528Z,1032.4
2018-03-21T09:46:04.791Z,1032.3
2018-03-21T09:51:04.293Z,1032.4
2018-03-21T09:56:04.455Z,1032.4
2018-03-21T10:01:04.946Z,1032.4
2018-03-21T10:06:04.257Z,1032.3
2018-03-21T10:11:04.845Z,1032.3
2018-03-21T10:16:05.098Z,1032.2
2018-03-21T10:21:04.674Z,1032.2
2018-03-21T10:26:04.902Z,1032.1
2018-03-21T10:31:04.141Z,1032.1
2018-03-21T10:36:04.618Z,1032
2018-03-21T10:41:04.195Z,1032.1
2018-03-21T10:46:04.498Z,1032.1
2018-03-21T10:51:04.967Z,1032.2
2018-03-21T10:56:04.186Z,1032.2
2018-03-21T11:01:04.456Z,1032.3
2018-03-21T11:06:04.960Z,1032.3
2018-03-21T11:11:04.599Z,1032.1
2018-03-21T11:16:04.841Z,1032.2
2018-03-21T11:21:04.389Z,1032.2
2018-03-21T11:26:04.571Z,1032
2018-03-21T11:31:04.836Z,1032
2018-03-21T11:36:04.291Z,1032
2018-03-21T11:41:04.891Z,1032.1
2018-03-21T11:46:04.195Z,1032
2018-03-21T11:51:04.658Z,1032.1
2018-03-21T11:56:04.875Z,1032.1
2018-03-21T12:01:04.150Z,1032
2018-03-21T12:06:04.603Z,1032
2018-03-21T12:11:04.212Z,1031.9
2018-03-21T12:16:04.454Z,1031.8
2018-03-21T12:21:04.946Z,1031.6
2018-03-21T12:26:04.216Z,1031.6
2018-03-21T12:31:04.486Z,1031.6
2018-03-21T12:36:04.977Z,1031.5
2018-03-21T12:41:04.444Z,1031.4
2018-03-21T12:46:04.768Z,1031.3
2018-03-21T12:51:04.256Z,1031.4
2018-03-21T12:56:05.514Z,1031.4
2018-03-21T13:01:04.777Z,1031.3
2018-03-21T13:06:05.250Z,1031.3
2018-03-21T13:11:04.782Z,1031.2
2018-03-21T13:16:05.066Z,1031.2
2018-03-21T13:21:04.597Z,1031.1
2018-03-21T13:26:05.098Z,1031.1
2018-03-21T13:31:05.125Z,1031.1
2018-03-21T13:36:04.618Z,1031.2
2018-03-21T13:41:05.114Z,1031.2
2018-03-21T13:46:04.404Z,1031.1
2018-03-21T13:51:04.870Z,1030.9
2018-03-21T13:56:05.089Z,1030.8
2018-03-21T14:01:04.359Z,1030.8
2018-03-21T14:06:04.825Z,1030.8
2018-03-21T14:11:04.815Z,1030.8
2018-03-21T14:16:04.729Z,1030.6
2018-03-21T14:21:05.205Z,1030.6
2018-03-21T14:26:04.430Z,1030.5
2018-03-21T14:31:04.664Z,1030.7
2018-03-21T14:36:05.154Z,1030.6
2018-03-21T14:41:04.775Z,1030.6
2018-03-21T14:46:05.095Z,1030.5
2018-03-21T14:51:04.533Z,1030.5
2018-03-21T14:56:04.675Z,1030.4
2018-03-21T15:01:04.995Z,1030.4
2018-03-21T15:06:04.455Z,1030.3
2018-03-21T15:11:05.049Z,1030.2
2018-03-21T15:16:04.289Z,1030.1
2018-03-21T15:21:04.815Z,1030
2018-03-21T15:26:05.073Z,1030
2018-03-21T15:31:04.337Z,1029.9
2018-03-21T15:36:04.831Z,1029.9
2018-03-21T15:41:04.398Z,1029.8
2018-03-21T15:46:04.682Z,1029.7
2018-03-21T15:51:05.322Z,1029.6
2018-03-21T15:56:04.425Z,1029.5
2018-03-21T16:01:04.845Z,1029.5
2018-03-21T16:06:05.176Z,1029.4
2018-03-21T16:11:04.773Z,1029.3
2018-03-21T16:16:05.023Z,1029.4
2018-03-21T16:21:04.620Z,1029.4
2018-03-21T16:26:04.943Z,1029.4
2018-03-21T16:31:05.082Z,1029.4
2018-03-21T16:36:04.546Z,1029.4
2018-03-21T16:41:04.208Z,1029.6
2018-03-21T16:46:04.515Z,1029.5
2018-03-21T16:51:04.918Z,1029.5
2018-03-21T16:56:05.338Z,1029.5
2018-03-21T17:01:04.439Z,1029.5
2018-03-21T17:06:04.864Z,1029.5
2018-03-21T17:11:04.461Z,1029.5
2018-03-21T17:16:04.752Z,1029.4
2018-03-21T17:21:04.313Z,1029.4
2018-03-21T17:26:04.541Z,1029.3
2018-03-21T17:31:06.051Z,1029.3
2018-03-21T17:36:04.395Z,1029.2
2018-03-21T17:41:07.172Z,1029.3
2018-03-21T17:46:07.394Z,1029.2
2018-03-21T17:51:06.624Z,1029.2
2018-03-21T17:56:07.086Z,1029.2
2018-03-21T18:01:05.388Z,1029.1
2018-03-21T18:06:04.820Z,1029
2018-03-21T18:11:04.192Z,1029.1
2018-03-21T18:16:06.700Z,1029.1
2018-03-21T18:21:07.002Z,1029
2018-03-21T18:26:06.666Z,1029
2018-03-21T18:31:07.004Z,1029
2018-03-21T18:36:07.352Z,1029
2018-03-21T18:41:13.450Z,1029
2018-03-21T18:46:07.138Z,1029
2018-03-21T18:51:07.112Z,1029
2018-03-21T18:56:06.574Z,1028.9
2018-03-21T19:01:06.893Z,1028.8
2018-03-21T19:06:06.469Z,1028.9
2018-03-21T19:11:07.230Z,1028.9
2018-03-21T19:16:07.504Z,1028.8
2018-03-21T19:21:06.851Z,1028.8
2018-03-21T19:26:07.525Z,1028.7
2018-03-21T19:31:07.147Z,1028.7
2018-03-21T19:36:07.050Z,1028.7
2018-03-21T19:41:07.701Z,1028.6
2018-03-21T19:46:06.775Z,1028.6
2018-03-21T19:51:07.416Z,1028.5
2018-03-21T19:56:06.771Z,1028.4
2018-03-21T20:01:06.886Z,1028.4
2018-03-21T20:06:07.398Z,1028.3
2018-03-21T20:11:07.858Z,1028.2
2018-03-21T20:16:07.184Z,1028.1
2018-03-21T20:21:06.816Z,1028.1
2018-03-21T20:26:06.885Z,1028
2018-03-21T20:31:12.731Z,1027.9
2018-03-21T20:36:06.788Z,1027.9
2018-03-21T20:41:07.157Z,1027.9
2018-03-21T20:46:06.693Z,1027.9
2018-03-21T20:51:07.329Z,1028
2018-03-21T20:56:07.237Z,1027.8
2018-03-21T21:01:07.513Z,1027.8
2018-03-21T21:06:06.875Z,1027.8
2018-03-21T21:11:06.642Z,1027.7
2018-03-21T21:16:06.784Z,1027.6
2018-03-21T21:21:07.110Z,1027.7
2018-03-21T21:26:06.863Z,1027.5
2018-03-21T21:31:06.583Z,1027.5
2018-03-21T21:36:11.524Z,1027.5
2018-03-21T21:41:06.801Z,1027.4
2018-03-21T21:46:06.875Z,1027.4
2018-03-21T21:51:11.867Z,1027.2
2018-03-21T21:56:04.616Z,1027.2
2018-03-21T22:01:07.226Z,1027.2
2018-03-21T22:06:06.059Z,1027
2018-03-21T22:11:07.211Z,1027
2018-03-21T22:16:06.660Z,1026.9
2018-03-21T22:21:06.874Z,1026.8
2018-03-21T22:26:07.543Z,1026.8
2018-03-21T22:31:05.687Z,1026.7
2018-03-21T22:36:07.281Z,1026.7
2018-03-21T22:41:06.944Z,1026.6
2018-03-21T22:46:06.274Z,1026.4
2018-03-21T22:51:07.032Z,1026.3
2018-03-21T22:56:06.337Z,1026.4
2018-03-21T23:01:07.195Z,1026.3
2018-03-21T23:06:06.882Z,1026.1
2018-03-21T23:11:08.551Z,1026
2018-03-21T23:16:06.876Z,1026
2018-03-21T23:21:04.723Z,1025.9
2018-03-21T23:26:04.948Z,1025.8
2018-03-21T23:31:04.319Z,1025.8
2018-03-21T23:36:04.673Z,1025.8
2018-03-21T23:41:04.263Z,1025.7
2018-03-21T23:46:04.544Z,1025.7
2018-03-21T23:51:05.249Z,1025.7
2018-03-21T23:56:05.400Z,1025.7
